sensor_id;sensor_type;location;lat;lon;timestamp;pressure;altitude;pressure_sealevel;temperature
68027;BMP180;54819;48.030;14.710;2022-12-10T00:01:14;96251.00;;;3.90
68027;BMP180;54819;48.030;14.710;2022-12-10T00:03:42;96251.00;;;3.90
68027;BMP180;54819;48.030;14.710;2022-12-10T00:06:12;96256.20;;;3.90
68027;BMP180;54819;48.030;14.710;2022-12-10T00:08:39;96241.40;;;3.90
68027;BMP180;54819;48.030;14.710;2022-12-10T00:11:09;96239.80;;;3.84
68027;BMP180;54819;48.030;14.710;2022-12-10T00:13:37;96240.40;;;3.80
68027;BMP180;54819;48.030;14.710;2022-12-10T00:16:06;96244.40;;;3.80
68027;BMP180;54819;48.030;14.710;2022-12-10T00:18:34;96256.40;;;3.80
68027;BMP180;54819;48.030;14.710;2022-12-10T00:21:08;96250.80;;;3.80
68027;BMP180;54819;48.030;14.710;2022-12-10T00:23:36;96249.60;;;3.80
68027;BMP180;54819;48.030;14.710;2022-12-10T00:26:10;96253.40;;;3.80
68027;BMP180;54819;48.030;14.710;2022-12-10T00:28:38;96255.20;;;3.80
68027;BMP180;54819;48.030;14.710;2022-12-10T00:31:09;96247.60;;;3.80
68027;BMP180;54819;48.030;14.710;2022-12-10T00:33:37;96240.20;;;3.80
68027;BMP180;54819;48.030;14.710;2022-12-10T00:36:07;96233.80;;;3.80
68027;BMP180;54819;48.030;14.710;2022-12-10T00:38:35;96240.20;;;3.80
68027;BMP180;54819;48.030;14.710;2022-12-10T00:41:03;96244.80;;;3.70
68027;BMP180;54819;48.030;14.710;2022-12-10T00:43:31;96254.00;;;3.60
68027;BMP180;54819;48.030;14.710;2022-12-10T00:45:58;96251.40;;;3.60
68027;BMP180;54819;48.030;14.710;2022-12-10T00:48:24;96252.40;;;3.60
68027;BMP180;54819;48.030;14.710;2022-12-10T00:51:10;96253.80;;;3.56
68027;BMP180;54819;48.030;14.710;2022-12-10T00:53:39;96253.40;;;3.52
68027;BMP180;54819;48.030;14.710;2022-12-10T00:56:08;96262.60;;;3.58
68027;BMP180;54819;48.030;14.710;2022-12-10T00:58:37;96275.60;;;3.58
68027;BMP180;54819;48.030;14.710;2022-12-10T01:01:20;96279.60;;;3.60
68027;BMP180;54819;48.030;14.710;2022-12-10T01:03:49;96283.20;;;3.60
68027;BMP180;54819;48.030;14.710;2022-12-10T01:06:20;96286.80;;;3.60
68027;BMP180;54819;48.030;14.710;2022-12-10T01:08:49;96281.40;;;3.62
68027;BMP180;54819;48.030;14.710;2022-12-10T01:11:18;96274.80;;;3.70
68027;BMP180;54819;48.030;14.710;2022-12-10T01:13:46;96275.80;;;3.70
68027;BMP180;54819;48.030;14.710;2022-12-10T01:16:16;96275.20;;;3.70
68027;BMP180;54819;48.030;14.710;2022-12-10T01:18:43;96278.60;;;3.70
68027;BMP180;54819;48.030;14.710;2022-12-10T01:21:13;96282.40;;;3.70
68027;BMP180;54819;48.030;14.710;2022-12-10T01:23:42;96280.00;;;3.70
68027;BMP180;54819;48.030;14.710;2022-12-10T01:26:12;96279.00;;;3.70
68027;BMP180;54819;48.030;14.710;2022-12-10T01:28:40;96272.00;;;3.70
68027;BMP180;54819;48.030;14.710;2022-12-10T01:31:12;96272.20;;;3.64
68027;BMP180;54819;48.030;14.710;2022-12-10T01:33:40;96277.20;;;3.60
68027;BMP180;54819;48.030;14.710;2022-12-10T01:36:19;96275.40;;;3.60
68027;BMP180;54819;48.030;14.710;2022-12-10T01:38:47;96275.00;;;3.50
68027;BMP180;54819;48.030;14.710;2022-12-10T01:41:20;96282.60;;;3.50
68027;BMP180;54819;48.030;14.710;2022-12-10T01:46:52;96283.00;;;3.50
68027;BMP180;54819;48.030;14.710;2022-12-10T01:49:22;96281.60;;;3.50
68027;BMP180;54819;48.030;14.710;2022-12-10T01:51:53;96280.20;;;3.40
68027;BMP180;54819;48.030;14.710;2022-12-10T01:54:30;96283.80;;;3.40
68027;BMP180;54819;48.030;14.710;2022-12-10T01:57:04;96282.80;;;3.40
68027;BMP180;54819;48.030;14.710;2022-12-10T01:59:32;96286.80;;;3.40
68027;BMP180;54819;48.030;14.710;2022-12-10T02:02:34;96285.60;;;3.32
68027;BMP180;54819;48.030;14.710;2022-12-10T02:13:41;96290.80;;;3.20
68027;BMP180;54819;48.030;14.710;2022-12-10T02:16:38;96294.40;;;3.20
68027;BMP180;54819;48.030;14.710;2022-12-10T02:22:05;96293.80;;;3.26
68027;BMP180;54819;48.030;14.710;2022-12-10T02:24:34;96295.20;;;3.22
68027;BMP180;54819;48.030;14.710;2022-12-10T02:27:24;96296.80;;;3.30
68027;BMP180;54819;48.030;14.710;2022-12-10T02:29:54;96296.80;;;3.30
68027;BMP180;54819;48.030;14.710;2022-12-10T02:32:31;96290.00;;;3.30
68027;BMP180;54819;48.030;14.710;2022-12-10T02:35:03;96281.00;;;3.30
68027;BMP180;54819;48.030;14.710;2022-12-10T02:37:37;96281.60;;;3.30
68027;BMP180;54819;48.030;14.710;2022-12-10T02:40:11;96271.60;;;3.30
68027;BMP180;54819;48.030;14.710;2022-12-10T02:42:43;96254.40;;;3.30
68027;BMP180;54819;48.030;14.710;2022-12-10T02:45:12;96264.60;;;3.36
68027;BMP180;54819;48.030;14.710;2022-12-10T02:47:40;96269.60;;;3.40
68027;BMP180;54819;48.030;14.710;2022-12-10T02:50:10;96273.60;;;3.40
68027;BMP180;54819;48.030;14.710;2022-12-10T02:52:37;96267.20;;;3.40
68027;BMP180;54819;48.030;14.710;2022-12-10T02:55:04;96262.80;;;3.38
68027;BMP180;54819;48.030;14.710;2022-12-10T02:57:50;96257.20;;;3.40
68027;BMP180;54819;48.030;14.710;2022-12-10T03:00:22;96252.00;;;3.40
68027;BMP180;54819;48.030;14.710;2022-12-10T03:03:34;96251.80;;;3.40
68027;BMP180;54819;48.030;14.710;2022-12-10T03:06:18;96244.20;;;3.40
68027;BMP180;54819;48.030;14.710;2022-12-10T03:08:54;96246.20;;;3.40
68027;BMP180;54819;48.030;14.710;2022-12-10T03:11:25;96244.60;;;3.40
68027;BMP180;54819;48.030;14.710;2022-12-10T03:13:57;96251.20;;;3.40
68027;BMP180;54819;48.030;14.710;2022-12-10T03:16:29;96255.00;;;3.40
68027;BMP180;54819;48.030;14.710;2022-12-10T03:19:01;96260.00;;;3.40
68027;BMP180;54819;48.030;14.710;2022-12-10T03:21:29;96267.20;;;3.40
68027;BMP180;54819;48.030;14.710;2022-12-10T03:23:58;96276.80;;;3.40
68027;BMP180;54819;48.030;14.710;2022-12-10T03:26:25;96275.80;;;3.44
68027;BMP180;54819;48.030;14.710;2022-12-10T03:29:00;96284.80;;;3.50
68027;BMP180;54819;48.030;14.710;2022-12-10T03:31:30;96284.20;;;3.50
68027;BMP180;54819;48.030;14.710;2022-12-10T03:33:57;96286.60;;;3.50
68027;BMP180;54819;48.030;14.710;2022-12-10T03:36:26;96281.20;;;3.50
68027;BMP180;54819;48.030;14.710;2022-12-10T03:38:53;96284.00;;;3.58
68027;BMP180;54819;48.030;14.710;2022-12-10T03:41:20;96276.80;;;3.60
68027;BMP180;54819;48.030;14.710;2022-12-10T03:43:52;96269.40;;;3.60
68027;BMP180;54819;48.030;14.710;2022-12-10T03:46:20;96272.40;;;3.60
68027;BMP180;54819;48.030;14.710;2022-12-10T03:48:48;96274.20;;;3.60
68027;BMP180;54819;48.030;14.710;2022-12-10T03:51:14;96274.80;;;3.60
68027;BMP180;54819;48.030;14.710;2022-12-10T03:53:41;96276.40;;;3.60
68027;BMP180;54819;48.030;14.710;2022-12-10T03:56:08;96281.20;;;3.60
68027;BMP180;54819;48.030;14.710;2022-12-10T03:58:35;96277.60;;;3.60
68027;BMP180;54819;48.030;14.710;2022-12-10T04:01:03;96275.20;;;3.60
68027;BMP180;54819;48.030;14.710;2022-12-10T04:03:30;96275.20;;;3.60
68027;BMP180;54819;48.030;14.710;2022-12-10T04:06:06;96277.00;;;3.54
68027;BMP180;54819;48.030;14.710;2022-12-10T04:08:34;96276.80;;;3.50
68027;BMP180;54819;48.030;14.710;2022-12-10T04:11:06;96277.60;;;3.50
68027;BMP180;54819;48.030;14.710;2022-12-10T04:13:34;96277.00;;;3.50
68027;BMP180;54819;48.030;14.710;2022-12-10T04:16:21;96280.60;;;3.46
68027;BMP180;54819;48.030;14.710;2022-12-10T04:21:28;96283.20;;;3.40
68027;BMP180;54819;48.030;14.710;2022-12-10T04:24:14;96272.20;;;3.40
68027;BMP180;54819;48.030;14.710;2022-12-10T04:27:04;96268.20;;;3.34
68027;BMP180;54819;48.030;14.710;2022-12-10T04:29:31;96269.20;;;3.30
68027;BMP180;54819;48.030;14.710;2022-12-10T04:31:58;96268.60;;;3.22
68027;BMP180;54819;48.030;14.710;2022-12-10T04:34:26;96267.60;;;3.20
68027;BMP180;54819;48.030;14.710;2022-12-10T04:36:53;96267.00;;;3.10
68027;BMP180;54819;48.030;14.710;2022-12-10T04:39:20;96270.20;;;3.10
68027;BMP180;54819;48.030;14.710;2022-12-10T04:41:48;96269.80;;;3.10
68027;BMP180;54819;48.030;14.710;2022-12-10T04:44:15;96274.00;;;3.10
68027;BMP180;54819;48.030;14.710;2022-12-10T04:46:42;96272.80;;;3.10
68027;BMP180;54819;48.030;14.710;2022-12-10T04:49:09;96274.80;;;3.10
68027;BMP180;54819;48.030;14.710;2022-12-10T04:51:36;96276.20;;;3.18
68027;BMP180;54819;48.030;14.710;2022-12-10T04:54:04;96278.40;;;3.20
68027;BMP180;54819;48.030;14.710;2022-12-10T04:56:31;96280.80;;;3.20
68027;BMP180;54819;48.030;14.710;2022-12-10T04:58:59;96274.40;;;3.20
68027;BMP180;54819;48.030;14.710;2022-12-10T05:01:27;96274.80;;;3.20
68027;BMP180;54819;48.030;14.710;2022-12-10T05:03:54;96262.80;;;3.24
68027;BMP180;54819;48.030;14.710;2022-12-10T05:06:21;96276.40;;;3.28
68027;BMP180;54819;48.030;14.710;2022-12-10T05:08:47;96274.40;;;3.30
68027;BMP180;54819;48.030;14.710;2022-12-10T05:11:17;96272.20;;;3.30
68027;BMP180;54819;48.030;14.710;2022-12-10T05:13:44;96270.60;;;3.30
68027;BMP180;54819;48.030;14.710;2022-12-10T05:16:14;96269.80;;;3.30
68027;BMP180;54819;48.030;14.710;2022-12-10T05:18:41;96267.00;;;3.30
68027;BMP180;54819;48.030;14.710;2022-12-10T05:21:11;96269.20;;;3.30
68027;BMP180;54819;48.030;14.710;2022-12-10T05:23:43;96277.60;;;3.30
68027;BMP180;54819;48.030;14.710;2022-12-10T05:26:13;96280.00;;;3.30
68027;BMP180;54819;48.030;14.710;2022-12-10T05:28:51;96287.40;;;3.30
68027;BMP180;54819;48.030;14.710;2022-12-10T05:31:22;96288.20;;;3.30
68027;BMP180;54819;48.030;14.710;2022-12-10T05:33:49;96290.60;;;3.26
68027;BMP180;54819;48.030;14.710;2022-12-10T05:36:19;96289.40;;;3.20
68027;BMP180;54819;48.030;14.710;2022-12-10T05:38:46;96292.20;;;3.20
68027;BMP180;54819;48.030;14.710;2022-12-10T05:41:16;96290.60;;;3.20
68027;BMP180;54819;48.030;14.710;2022-12-10T05:43:44;96300.00;;;3.30
68027;BMP180;54819;48.030;14.710;2022-12-10T05:46:18;96295.00;;;3.30
68027;BMP180;54819;48.030;14.710;2022-12-10T05:48:46;96291.20;;;3.30
68027;BMP180;54819;48.030;14.710;2022-12-10T05:51:15;96287.20;;;3.30
68027;BMP180;54819;48.030;14.710;2022-12-10T05:53:42;96291.60;;;3.40
68027;BMP180;54819;48.030;14.710;2022-12-10T05:56:14;96294.00;;;3.40
68027;BMP180;54819;48.030;14.710;2022-12-10T05:58:43;96299.00;;;3.40
68027;BMP180;54819;48.030;14.710;2022-12-10T06:01:17;96296.80;;;3.44
68027;BMP180;54819;48.030;14.710;2022-12-10T06:03:44;96301.60;;;3.50
68027;BMP180;54819;48.030;14.710;2022-12-10T06:06:11;96301.00;;;3.50
68027;BMP180;54819;48.030;14.710;2022-12-10T06:08:39;96296.00;;;3.50
68027;BMP180;54819;48.030;14.710;2022-12-10T06:11:10;96294.60;;;3.50
68027;BMP180;54819;48.030;14.710;2022-12-10T06:13:37;96300.00;;;3.50
68027;BMP180;54819;48.030;14.710;2022-12-10T06:16:09;96305.00;;;3.50
68027;BMP180;54819;48.030;14.710;2022-12-10T06:18:37;96312.60;;;3.50
68027;BMP180;54819;48.030;14.710;2022-12-10T06:21:09;96317.80;;;3.50
68027;BMP180;54819;48.030;14.710;2022-12-10T06:23:37;96319.60;;;3.50
68027;BMP180;54819;48.030;14.710;2022-12-10T06:26:06;96313.80;;;3.50
68027;BMP180;54819;48.030;14.710;2022-12-10T06:28:33;96308.00;;;3.50
68027;BMP180;54819;48.030;14.710;2022-12-10T06:31:00;96305.60;;;3.50
68027;BMP180;54819;48.030;14.710;2022-12-10T06:33:27;96309.80;;;3.50
68027;BMP180;54819;48.030;14.710;2022-12-10T06:35:53;96296.40;;;3.50
68027;BMP180;54819;48.030;14.710;2022-12-10T06:38:20;96312.60;;;3.40
68027;BMP180;54819;48.030;14.710;2022-12-10T06:40:47;96311.80;;;3.40
68027;BMP180;54819;48.030;14.710;2022-12-10T06:43:14;96309.40;;;3.40
68027;BMP180;54819;48.030;14.710;2022-12-10T06:45:41;96313.80;;;3.40
68027;BMP180;54819;48.030;14.710;2022-12-10T06:48:08;96308.80;;;3.40
68027;BMP180;54819;48.030;14.710;2022-12-10T06:50:35;96306.60;;;3.40
68027;BMP180;54819;48.030;14.710;2022-12-10T06:53:02;96308.20;;;3.40
68027;BMP180;54819;48.030;14.710;2022-12-10T06:55:29;96307.00;;;3.40
68027;BMP180;54819;48.030;14.710;2022-12-10T06:57:56;96307.80;;;3.40
68027;BMP180;54819;48.030;14.710;2022-12-10T07:00:23;96312.80;;;3.40
68027;BMP180;54819;48.030;14.710;2022-12-10T07:02:50;96317.40;;;3.40
68027;BMP180;54819;48.030;14.710;2022-12-10T07:05:17;96320.20;;;3.40
68027;BMP180;54819;48.030;14.710;2022-12-10T07:07:44;96317.00;;;3.42
68027;BMP180;54819;48.030;14.710;2022-12-10T07:10:12;96319.00;;;3.48
68027;BMP180;54819;48.030;14.710;2022-12-10T07:12:40;96319.60;;;3.50
68027;BMP180;54819;48.030;14.710;2022-12-10T07:15:07;96317.00;;;3.50
68027;BMP180;54819;48.030;14.710;2022-12-10T07:17:34;96321.00;;;3.50
68027;BMP180;54819;48.030;14.710;2022-12-10T07:20:01;96318.00;;;3.50
68027;BMP180;54819;48.030;14.710;2022-12-10T07:22:29;96314.40;;;3.50
68027;BMP180;54819;48.030;14.710;2022-12-10T07:24:55;96306.80;;;3.50
68027;BMP180;54819;48.030;14.710;2022-12-10T07:27:22;96305.80;;;3.50
68027;BMP180;54819;48.030;14.710;2022-12-10T07:29:49;96298.40;;;3.50
68027;BMP180;54819;48.030;14.710;2022-12-10T07:32:16;96297.00;;;3.50
68027;BMP180;54819;48.030;14.710;2022-12-10T07:34:43;96306.40;;;3.52
68027;BMP180;54819;48.030;14.710;2022-12-10T07:37:09;96308.20;;;3.60
68027;BMP180;54819;48.030;14.710;2022-12-10T07:39:36;96314.40;;;3.60
68027;BMP180;54819;48.030;14.710;2022-12-10T07:42:03;96318.40;;;3.60
68027;BMP180;54819;48.030;14.710;2022-12-10T07:44:30;96321.60;;;3.60
68027;BMP180;54819;48.030;14.710;2022-12-10T07:46:57;96313.40;;;3.60
68027;BMP180;54819;48.030;14.710;2022-12-10T07:49:24;96308.00;;;3.60
68027;BMP180;54819;48.030;14.710;2022-12-10T07:51:51;96307.00;;;3.68
68027;BMP180;54819;48.030;14.710;2022-12-10T07:54:18;96305.80;;;3.70
68027;BMP180;54819;48.030;14.710;2022-12-10T07:56:45;96301.60;;;3.70
68027;BMP180;54819;48.030;14.710;2022-12-10T07:59:12;96295.20;;;3.70
68027;BMP180;54819;48.030;14.710;2022-12-10T08:01:40;96297.00;;;3.80
68027;BMP180;54819;48.030;14.710;2022-12-10T08:04:06;96299.40;;;3.80
68027;BMP180;54819;48.030;14.710;2022-12-10T08:06:33;96293.60;;;3.80
68027;BMP180;54819;48.030;14.710;2022-12-10T08:09:02;96286.60;;;3.90
68027;BMP180;54819;48.030;14.710;2022-12-10T08:11:29;96284.00;;;3.90
68027;BMP180;54819;48.030;14.710;2022-12-10T08:13:56;96289.60;;;3.98
68027;BMP180;54819;48.030;14.710;2022-12-10T08:16:26;96298.80;;;4.00
68027;BMP180;54819;48.030;14.710;2022-12-10T08:18:55;96298.20;;;4.04
68027;BMP180;54819;48.030;14.710;2022-12-10T08:21:25;96292.80;;;4.10
68027;BMP180;54819;48.030;14.710;2022-12-10T08:23:53;96289.20;;;4.16
68027;BMP180;54819;48.030;14.710;2022-12-10T08:26:23;96296.00;;;4.20
68027;BMP180;54819;48.030;14.710;2022-12-10T08:28:53;96302.00;;;4.24
68027;BMP180;54819;48.030;14.710;2022-12-10T08:31:21;96307.20;;;4.30
68027;BMP180;54819;48.030;14.710;2022-12-10T08:33:49;96309.40;;;4.30
68027;BMP180;54819;48.030;14.710;2022-12-10T08:36:17;96307.40;;;4.30
68027;BMP180;54819;48.030;14.710;2022-12-10T08:38:44;96306.00;;;4.30
68027;BMP180;54819;48.030;14.710;2022-12-10T08:41:21;96307.20;;;4.30
68027;BMP180;54819;48.030;14.710;2022-12-10T08:43:51;96305.80;;;4.30
68027;BMP180;54819;48.030;14.710;2022-12-10T08:46:19;96313.00;;;4.30
68027;BMP180;54819;48.030;14.710;2022-12-10T08:48:46;96319.00;;;4.30
68027;BMP180;54819;48.030;14.710;2022-12-10T08:51:15;96325.60;;;4.30
68027;BMP180;54819;48.030;14.710;2022-12-10T08:53:43;96329.60;;;4.22
68027;BMP180;54819;48.030;14.710;2022-12-10T08:56:10;96332.60;;;4.20
68027;BMP180;54819;48.030;14.710;2022-12-10T08:58:37;96324.80;;;4.20
68027;BMP180;54819;48.030;14.710;2022-12-10T09:01:09;96328.40;;;4.20
68027;BMP180;54819;48.030;14.710;2022-12-10T09:03:37;96335.60;;;4.20
68027;BMP180;54819;48.030;14.710;2022-12-10T09:06:13;96339.20;;;4.20
68027;BMP180;54819;48.030;14.710;2022-12-10T09:08:40;96341.40;;;4.20
68027;BMP180;54819;48.030;14.710;2022-12-10T09:11:08;96345.20;;;4.20
68027;BMP180;54819;48.030;14.710;2022-12-10T09:13:36;96346.40;;;4.20
68027;BMP180;54819;48.030;14.710;2022-12-10T09:16:03;96345.20;;;4.20
68027;BMP180;54819;48.030;14.710;2022-12-10T09:18:30;96347.60;;;4.20
68027;BMP180;54819;48.030;14.710;2022-12-10T09:20:57;96348.80;;;4.20
68027;BMP180;54819;48.030;14.710;2022-12-10T09:23:24;96350.00;;;4.26
68027;BMP180;54819;48.030;14.710;2022-12-10T09:25:51;96353.20;;;4.30
68027;BMP180;54819;48.030;14.710;2022-12-10T09:28:18;96349.60;;;4.40
68027;BMP180;54819;48.030;14.710;2022-12-10T09:30:44;96348.40;;;4.40
68027;BMP180;54819;48.030;14.710;2022-12-10T09:33:11;96341.80;;;4.40
68027;BMP180;54819;48.030;14.710;2022-12-10T09:35:42;96341.80;;;4.40
68027;BMP180;54819;48.030;14.710;2022-12-10T09:38:10;96341.80;;;4.40
68027;BMP180;54819;48.030;14.710;2022-12-10T09:40:44;96348.40;;;4.40
68027;BMP180;54819;48.030;14.710;2022-12-10T09:43:41;96341.80;;;4.40
68027;BMP180;54819;48.030;14.710;2022-12-10T09:49:17;96343.80;;;4.40
68027;BMP180;54819;48.030;14.710;2022-12-10T09:51:47;96346.20;;;4.46
68027;BMP180;54819;48.030;14.710;2022-12-10T09:54:24;96342.20;;;4.50
68027;BMP180;54819;48.030;14.710;2022-12-10T09:56:52;96337.40;;;4.50
68027;BMP180;54819;48.030;14.710;2022-12-10T09:59:40;96338.40;;;4.40
68027;BMP180;54819;48.030;14.710;2022-12-10T10:02:24;96336.00;;;4.40
68027;BMP180;54819;48.030;14.710;2022-12-10T10:04:57;96336.60;;;4.40
68027;BMP180;54819;48.030;14.710;2022-12-10T10:07:28;96334.80;;;4.50
68027;BMP180;54819;48.030;14.710;2022-12-10T10:10:33;96338.20;;;4.50
68027;BMP180;54819;48.030;14.710;2022-12-10T10:13:12;96335.40;;;4.60
68027;BMP180;54819;48.030;14.710;2022-12-10T10:15:41;96334.40;;;4.62
68027;BMP180;54819;48.030;14.710;2022-12-10T10:21:00;96330.60;;;4.76
68027;BMP180;54819;48.030;14.710;2022-12-10T10:23:27;96327.80;;;4.80
68027;BMP180;54819;48.030;14.710;2022-12-10T10:25:53;96324.40;;;4.86
68027;BMP180;54819;48.030;14.710;2022-12-10T10:28:22;96320.40;;;4.90
68027;BMP180;54819;48.030;14.710;2022-12-10T10:30:51;96321.00;;;4.90
68027;BMP180;54819;48.030;14.710;2022-12-10T10:33:20;96316.00;;;5.00
68027;BMP180;54819;48.030;14.710;2022-12-10T10:35:55;96311.80;;;5.00
68027;BMP180;54819;48.030;14.710;2022-12-10T10:38:28;96303.60;;;5.10
68027;BMP180;54819;48.030;14.710;2022-12-10T10:40:58;96305.40;;;5.10
68027;BMP180;54819;48.030;14.710;2022-12-10T10:43:39;96301.40;;;5.20
68027;BMP180;54819;48.030;14.710;2022-12-10T10:46:11;96293.40;;;5.22
68027;BMP180;54819;48.030;14.710;2022-12-10T10:48:39;96286.60;;;5.30
68027;BMP180;54819;48.030;14.710;2022-12-10T10:56:09;96279.40;;;5.30
68027;BMP180;54819;48.030;14.710;2022-12-10T11:04:13;96264.00;;;5.40
68027;BMP180;54819;48.030;14.710;2022-12-10T11:06:41;96254.60;;;5.40
68027;BMP180;54819;48.030;14.710;2022-12-10T11:09:21;96252.40;;;5.40
68027;BMP180;54819;48.030;14.710;2022-12-10T11:11:56;96244.80;;;5.40
68027;BMP180;54819;48.030;14.710;2022-12-10T11:14:30;96234.80;;;5.40
68027;BMP180;54819;48.030;14.710;2022-12-10T11:22:22;96221.00;;;5.40
68027;BMP180;54819;48.030;14.710;2022-12-10T11:24:50;96226.20;;;5.40
68027;BMP180;54819;48.030;14.710;2022-12-10T11:27:52;96223.60;;;5.30
68027;BMP180;54819;48.030;14.710;2022-12-10T11:30:25;96234.80;;;5.30
68027;BMP180;54819;48.030;14.710;2022-12-10T11:33:05;96227.20;;;5.30
68027;BMP180;54819;48.030;14.710;2022-12-10T11:35:44;96232.60;;;5.26
68027;BMP180;54819;48.030;14.710;2022-12-10T11:49:09;96227.80;;;5.30
68027;BMP180;54819;48.030;14.710;2022-12-10T12:00:44;96245.60;;;5.20
68027;BMP180;54819;48.030;14.710;2022-12-10T12:03:39;96250.00;;;5.20
68027;BMP180;54819;48.030;14.710;2022-12-10T12:06:39;96248.40;;;5.20
68027;BMP180;54819;48.030;14.710;2022-12-10T12:09:23;96247.60;;;5.20
68027;BMP180;54819;48.030;14.710;2022-12-10T12:13:00;96248.60;;;5.10
68027;BMP180;54819;48.030;14.710;2022-12-10T12:15:20;96250.60;;;5.10
68027;BMP180;54819;48.030;14.710;2022-12-10T12:17:53;96257.20;;;5.10
68027;BMP180;54819;48.030;14.710;2022-12-10T12:20:34;96258.20;;;5.06
68027;BMP180;54819;48.030;14.710;2022-12-10T12:23:11;96260.20;;;5.00
68027;BMP180;54819;48.030;14.710;2022-12-10T12:25:45;96256.00;;;5.00
68027;BMP180;54819;48.030;14.710;2022-12-10T12:31:17;96258.80;;;4.92
68027;BMP180;54819;48.030;14.710;2022-12-10T12:36:27;96274.20;;;4.90
68027;BMP180;54819;48.030;14.710;2022-12-10T12:47:38;96278.80;;;4.88
68027;BMP180;54819;48.030;14.710;2022-12-10T12:50:25;96279.40;;;4.90
68027;BMP180;54819;48.030;14.710;2022-12-10T12:52:58;96281.20;;;4.90
68027;BMP180;54819;48.030;14.710;2022-12-10T12:55:46;96280.60;;;4.90
68027;BMP180;54819;48.030;14.710;2022-12-10T13:01:42;96278.00;;;4.90
68027;BMP180;54819;48.030;14.710;2022-12-10T13:04:11;96280.40;;;4.80
68027;BMP180;54819;48.030;14.710;2022-12-10T13:06:39;96281.60;;;4.80
68027;BMP180;54819;48.030;14.710;2022-12-10T13:11:45;96289.40;;;4.70
68027;BMP180;54819;48.030;14.710;2022-12-10T13:14:35;96288.20;;;4.70
68027;BMP180;54819;48.030;14.710;2022-12-10T13:17:24;96290.80;;;4.70
68027;BMP180;54819;48.030;14.710;2022-12-10T13:19:51;96289.40;;;4.70
68027;BMP180;54819;48.030;14.710;2022-12-10T13:25:16;96294.00;;;4.70
68027;BMP180;54819;48.030;14.710;2022-12-10T13:27:57;96295.80;;;4.70
68027;BMP180;54819;48.030;14.710;2022-12-10T13:30:42;96289.80;;;4.70
68027;BMP180;54819;48.030;14.710;2022-12-10T13:33:19;96284.80;;;4.80
68027;BMP180;54819;48.030;14.710;2022-12-10T13:35:55;96292.40;;;4.80
68027;BMP180;54819;48.030;14.710;2022-12-10T13:38:27;96286.40;;;4.80
68027;BMP180;54819;48.030;14.710;2022-12-10T13:41:01;96285.60;;;4.80
68027;BMP180;54819;48.030;14.710;2022-12-10T13:43:58;96289.20;;;4.80
68027;BMP180;54819;48.030;14.710;2022-12-10T13:49:23;96285.80;;;4.80
68027;BMP180;54819;48.030;14.710;2022-12-10T13:52:05;96284.60;;;4.80
68027;BMP180;54819;48.030;14.710;2022-12-10T14:00:08;96297.40;;;4.80
68027;BMP180;54819;48.030;14.710;2022-12-10T14:07:56;96294.00;;;4.80
68027;BMP180;54819;48.030;14.710;2022-12-10T14:10:29;96297.20;;;4.80
68027;BMP180;54819;48.030;14.710;2022-12-10T14:13:01;96298.20;;;4.80
68027;BMP180;54819;48.030;14.710;2022-12-10T14:15:28;96301.40;;;4.80
68027;BMP180;54819;48.030;14.710;2022-12-10T14:18:03;96296.00;;;4.80
68027;BMP180;54819;48.030;14.710;2022-12-10T14:20:34;96295.00;;;4.80
68027;BMP180;54819;48.030;14.710;2022-12-10T14:23:17;96295.60;;;4.80
68027;BMP180;54819;48.030;14.710;2022-12-10T14:26:27;96298.60;;;4.86
68027;BMP180;54819;48.030;14.710;2022-12-10T14:28:57;96296.40;;;4.80
68027;BMP180;54819;48.030;14.710;2022-12-10T14:31:31;96300.00;;;4.80
68027;BMP180;54819;48.030;14.710;2022-12-10T14:34:04;96302.20;;;4.80
68027;BMP180;54819;48.030;14.710;2022-12-10T14:36:37;96306.00;;;4.80
68027;BMP180;54819;48.030;14.710;2022-12-10T14:39:14;96315.00;;;4.80
68027;BMP180;54819;48.030;14.710;2022-12-10T14:41:43;96317.00;;;4.80
68027;BMP180;54819;48.030;14.710;2022-12-10T14:44:12;96315.80;;;4.80
68027;BMP180;54819;48.030;14.710;2022-12-10T14:46:40;96318.80;;;4.70
68027;BMP180;54819;48.030;14.710;2022-12-10T14:49:20;96315.60;;;4.70
68027;BMP180;54819;48.030;14.710;2022-12-10T14:51:48;96314.40;;;4.70
68027;BMP180;54819;48.030;14.710;2022-12-10T14:54:33;96321.40;;;4.70
68027;BMP180;54819;48.030;14.710;2022-12-10T14:57:04;96319.20;;;4.70
68027;BMP180;54819;48.030;14.710;2022-12-10T14:59:36;96318.40;;;4.70
68027;BMP180;54819;48.030;14.710;2022-12-10T15:02:22;96319.20;;;4.70
68027;BMP180;54819;48.030;14.710;2022-12-10T15:04:51;96315.80;;;4.70
68027;BMP180;54819;48.030;14.710;2022-12-10T15:07:21;96313.20;;;4.70
68027;BMP180;54819;48.030;14.710;2022-12-10T15:09:52;96313.80;;;4.64
68027;BMP180;54819;48.030;14.710;2022-12-10T15:14:51;96312.20;;;4.60
68027;BMP180;54819;48.030;14.710;2022-12-10T15:17:42;96319.20;;;4.60
68027;BMP180;54819;48.030;14.710;2022-12-10T15:20:44;96318.60;;;4.52
68027;BMP180;54819;48.030;14.710;2022-12-10T15:25:48;96326.80;;;4.50
68027;BMP180;54819;48.030;14.710;2022-12-10T15:28:28;96333.00;;;4.50
68027;BMP180;54819;48.030;14.710;2022-12-10T15:33:57;96336.00;;;4.50
68027;BMP180;54819;48.030;14.710;2022-12-10T15:36:30;96342.20;;;4.50
68027;BMP180;54819;48.030;14.710;2022-12-10T15:39:12;96339.40;;;4.50
68027;BMP180;54819;48.030;14.710;2022-12-10T15:41:58;96341.80;;;4.44
68027;BMP180;54819;48.030;14.710;2022-12-10T15:47:15;96344.80;;;4.40
68027;BMP180;54819;48.030;14.710;2022-12-10T15:49:44;96339.00;;;4.40
68027;BMP180;54819;48.030;14.710;2022-12-10T15:52:15;96332.40;;;4.40
68027;BMP180;54819;48.030;14.710;2022-12-10T15:54:45;96331.20;;;4.40
68027;BMP180;54819;48.030;14.710;2022-12-10T15:57:30;96330.60;;;4.32
68027;BMP180;54819;48.030;14.710;2022-12-10T16:00:00;96334.80;;;4.30
68027;BMP180;54819;48.030;14.710;2022-12-10T16:02:53;96336.80;;;4.30
68027;BMP180;54819;48.030;14.710;2022-12-10T16:05:32;96340.20;;;4.20
68027;BMP180;54819;48.030;14.710;2022-12-10T16:08:06;96345.40;;;4.20
68027;BMP180;54819;48.030;14.710;2022-12-10T16:10:36;96344.80;;;4.20
68027;BMP180;54819;48.030;14.710;2022-12-10T16:13:05;96347.20;;;4.20
68027;BMP180;54819;48.030;14.710;2022-12-10T16:16:00;96344.20;;;4.20
68027;BMP180;54819;48.030;14.710;2022-12-10T16:18:25;96347.00;;;4.20
68027;BMP180;54819;48.030;14.710;2022-12-10T16:20:59;96352.00;;;4.20
68027;BMP180;54819;48.030;14.710;2022-12-10T16:23:25;96355.00;;;4.20